Time;durP1;ratioP1;P1;durP2;ratioP2;P2;SDS_P1;SDS_P2;PMS_P1;PMS_P2;Temp;Humidity;BMP_temperature;BMP_pressure;BME280_temperature;BME280_humidity;BME280_pressure;Samples;Min_cycle;Max_cycle;Signal;HPM_P1;HPM_P2
2021/05/12 05:41:02;;;;;;;10.23;3.87;;;;;;;14.01;62.18;97745.98;1847954;76;21913;-66
2021/05/12 05:43:47;;;;;;;9.88;3.85;;;;;;;14.07;62.24;97740.67;1813121;78;20933;-67
2021/05/12 05:46:32;;;;;;;11.40;4.00;;;;;;;14.20;62.08;97746.45;1786364;79;22906;-68
2021/05/12 05:49:17;;;;;;;9.70;4.20;;;;;;;14.36;62.05;97742.17;1786287;79;20972;-68
2021/05/12 05:52:04;;;;;;;7.60;4.15;;;;;;;14.54;61.96;97746.41;1786478;79;20893;-68
2021/05/12 05:54:49;;;;;;;8.53;3.60;;;;;;;14.70;61.88;97742.06;1786411;79;20989;-68
2021/05/12 05:57:34;;;;;;;9.60;4.63;;;;;;;14.87;61.47;97730.43;1786585;79;20898;-63
2021/05/12 06:00:21;;;;;;;11.90;3.90;;;;;;;15.02;61.38;97731.25;1786828;79;22884;-62
2021/05/12 06:02:47;;;;;;;9.25;4.00;;;;;;;15.15;60.98;97729.42;1786195;79;21005;-60
2021/05/12 06:05:32;;;;;;;11.28;4.05;;;;;;;15.27;60.83;97729.51;1786532;79;26446;-67
2021/05/12 06:08:18;;;;;;;7.28;4.70;;;;;;;15.40;60.69;97722.52;1813331;78;20971;-69
2021/05/12 06:11:04;;;;;;;9.53;5.00;;;;;;;15.52;60.61;97721.86;1805255;78;20917;-64
2021/05/12 06:13:50;;;;;;;6.95;4.00;;;;;;;15.62;60.53;97718.20;1812942;78;20917;-68
2021/05/12 06:16:35;;;;;;;13.75;4.83;;;;;;;15.73;60.34;97715.33;1808074;77;21599;-68
2021/05/12 06:19:20;;;;;;;7.58;4.00;;;;;;;15.86;60.12;97713.48;1771502;78;20973;-66
2021/05/12 06:22:06;;;;;;;8.08;4.05;;;;;;;15.99;59.86;97710.28;1811278;77;20997;-67
2021/05/12 06:24:51;;;;;;;;;;;;;;;16.10;60.03;97710.89;1801548;77;21068;-67
2021/05/12 06:27:59;;;;;;;7.92;4.03;;;;;;;16.21;60.19;97719.36;1799178;79;23538;-67
2021/05/12 06:30:50;;;;;;;6.83;3.58;;;;;;;16.32;60.14;97717.25;1721340;82;21014;-66
2021/05/12 06:33:47;;;;;;;9.13;3.90;;;;;;;16.48;59.87;97707.97;1686547;83;21253;-65
2021/05/12 06:36:40;;;;;;;11.10;4.00;;;;;;;16.68;59.58;97709.82;1698456;83;21041;-64
2021/05/12 06:39:27;;;;;;;10.15;4.17;;;;;;;16.84;59.02;97702.62;1668237;84;21465;-66
2021/05/12 06:41:54;;;;;;;14.33;4.25;;;;;;;16.95;59.01;97702.98;1675005;84;20931;-65
2021/05/12 06:44:23;;;;;;;11.35;4.12;;;;;;;17.02;59.21;97705.91;1673235;84;20967;-67
2021/05/12 06:46:54;;;;;;;13.65;3.92;;;;;;;17.09;58.68;97696.10;1674224;84;21116;-64
2021/05/12 06:49:20;;;;;;;10.90;4.17;;;;;;;17.18;58.11;97697.33;1675112;84;20996;-66
2021/05/12 06:51:52;;;;;;;11.53;3.87;;;;;;;17.24;57.70;97698.66;1686813;83;20997;-62
2021/05/12 06:54:18;;;;;;;9.63;3.95;;;;;;;17.32;57.17;97703.17;1698493;83;23177;-64
2021/05/12 06:56:46;;;;;;;8.33;4.40;;;;;;;17.39;56.97;97697.98;1697330;82;20991;-64
2021/05/12 06:59:13;;;;;;;13.25;4.00;;;;;;;17.46;56.65;97696.84;1673746;84;21522;-68
2021/05/12 07:01:40;;;;;;;11.50;4.00;;;;;;;17.52;56.41;97706.31;1711074;83;21012;-66
2021/05/12 07:04:07;;;;;;;10.72;3.95;;;;;;;17.57;55.76;97701.26;1661192;85;21010;-67
2021/05/12 07:06:34;;;;;;;8.25;4.22;;;;;;;17.59;56.13;97706.53;1680002;85;22654;-66
2021/05/12 07:09:01;;;;;;;14.80;4.30;;;;;;;17.61;55.99;97720.54;1659272;85;21065;-68
2021/05/12 07:11:29;;;;;;;9.10;4.22;;;;;;;17.57;56.28;97716.92;1735040;82;21044;-64
2021/05/12 07:13:55;;;;;;;10.60;4.10;;;;;;;17.56;56.27;97715.36;1687246;83;20864;-59
2021/05/12 07:16:22;;;;;;;16.10;4.70;;;;;;;17.58;56.77;97714.45;1674182;84;20997;-68
2021/05/12 07:18:49;;;;;;;15.30;3.95;;;;;;;17.62;56.55;97709.91;1721067;82;22677;-67
2021/05/12 07:21:16;;;;;;;9.73;4.42;;;;;;;17.66;55.85;97710.80;1721075;81;21136;-65
2021/05/12 07:23:44;;;;;;;12.33;5.03;;;;;;;17.70;55.68;97706.30;1721192;81;20936;-67
2021/05/12 07:26:11;;;;;;;8.55;4.65;;;;;;;17.73;55.85;97709.65;1721128;81;20977;-66
2021/05/12 07:28:38;;;;;;;8.15;4.30;;;;;;;17.78;55.82;97701.08;1719345;81;20995;-69
2021/05/12 07:31:05;;;;;;;12.98;4.35;;;;;;;17.87;56.26;97711.20;1712973;83;22806;-69
2021/05/12 07:33:32;;;;;;;8.08;4.20;;;;;;;17.95;55.53;97713.77;1659670;85;21168;-71
2021/05/12 07:35:59;;;;;;;15.38;3.87;;;;;;;18.02;54.79;97705.03;1719345;83;21027;-68
2021/05/12 07:38:26;;;;;;;6.22;3.72;;;;;;;18.09;54.75;97710.69;1682995;85;20937;-67
2021/05/12 07:40:54;;;;;;;13.78;4.30;;;;;;;18.16;54.57;97706.81;1699212;83;21010;-69
2021/05/12 07:43:21;;;;;;;10.70;4.30;;;;;;;18.20;54.33;97688.72;1689160;83;20969;-67
2021/05/12 07:45:47;;;;;;;11.80;4.28;;;;;;;18.25;53.99;97699.31;1676968;84;20999;-64
2021/05/12 07:48:14;;;;;;;8.98;4.10;;;;;;;18.31;54.50;97700.63;1722383;81;20905;-64
2021/05/12 07:50:41;;;;;;;14.78;4.22;;;;;;;18.38;54.04;97695.39;1725283;81;20936;-69
2021/05/12 07:53:08;;;;;;;7.42;3.90;;;;;;;18.46;53.09;97682.84;1711383;83;20914;-69
2021/05/12 07:55:37;;;;;;;11.18;4.47;;;;;;;18.51;53.30;97699.66;1719428;81;21484;-66
2021/05/12 07:58:04;;;;;;;9.63;4.10;;;;;;;18.56;53.33;97691.23;1689057;83;21124;-70
2021/05/12 08:00:33;;;;;;;7.12;4.10;;;;;;;18.62;53.87;97695.28;1688921;83;21005;-65
2021/05/12 08:03:00;;;;;;;6.83;3.98;;;;;;;18.71;52.73;97693.18;1688241;83;21108;-69
2021/05/12 08:05:27;;;;;;;12.40;4.10;;;;;;;18.76;52.07;97680.72;1687984;82;21198;-68
2021/05/12 08:07:55;;;;;;;12.40;3.92;;;;;;;18.81;52.23;97684.52;1692730;83;21117;-67
2021/05/12 08:10:22;;;;;;;16.17;3.80;;;;;;;18.85;52.02;97682.67;1694008;83;21270;-65
2021/05/12 08:12:49;;;;;;;10.68;3.87;;;;;;;18.89;51.64;97683.54;1692702;83;20986;-64
2021/05/12 08:15:15;;;;;;;12.78;4.20;;;;;;;18.95;51.43;97687.58;1685599;83;21027;-66
2021/05/12 08:17:42;;;;;;;10.60;3.95;;;;;;;19.00;51.98;97681.89;1715310;82;20942;-62
2021/05/12 08:20:10;;;;;;;9.53;3.60;;;;;;;19.10;51.97;97687.35;1714374;83;21233;-65
2021/05/12 08:22:37;;;;;;;7.15;3.52;;;;;;;19.22;51.57;97686.45;1685573;83;21164;-68
2021/05/12 08:25:09;;;;;;;8.63;3.47;;;;;;;19.31;51.17;97691.12;1693430;83;20986;-65
2021/05/12 08:27:36;;;;;;;10.40;3.75;;;;;;;19.37;50.99;97687.00;1684624;83;20961;-65
2021/05/12 08:30:08;;;;;;;8.30;3.47;;;;;;;19.43;49.93;97684.24;1684027;83;21527;-65
2021/05/12 08:32:36;;;;;;;16.02;3.80;;;;;;;19.44;49.64;97674.38;1684386;84;21639;-66
2021/05/12 08:35:05;;;;;;;12.68;3.70;;;;;;;19.45;49.68;97694.17;1717009;82;21013;-69
2021/05/12 08:37:32;;;;;;;12.15;3.70;;;;;;;19.41;49.72;97691.37;1695651;83;21461;-67
2021/05/12 08:39:59;;;;;;;8.78;3.55;;;;;;;19.43;49.90;97689.67;1695541;83;21650;-64
2021/05/12 08:42:25;;;;;;;10.03;3.30;;;;;;;19.49;49.77;97686.32;1694569;83;20894;-63
2021/05/12 08:44:52;;;;;;;9.93;3.30;;;;;;;19.55;49.95;97682.73;1687916;83;22152;-65
2021/05/12 08:47:21;;;;;;;10.48;3.60;;;;;;;19.63;49.47;97681.76;1704768;84;21207;-65
2021/05/12 08:49:48;;;;;;;9.40;3.80;;;;;;;19.72;48.61;97685.84;1691609;83;20926;-61
2021/05/12 08:52:14;;;;;;;10.43;3.45;;;;;;;19.73;48.00;97679.84;1700110;82;20958;-62
2021/05/12 08:54:41;;;;;;;9.30;3.70;;;;;;;19.67;48.10;97674.45;1715764;82;21114;-65
2021/05/12 08:57:09;;;;;;;10.38;3.90;;;;;;;19.68;48.54;97670.61;1691973;82;22692;-61
2021/05/12 08:59:36;;;;;;;6.90;3.33;;;;;;;19.69;49.04;97678.39;1690427;82;20938;-63
2021/05/12 09:02:04;;;;;;;10.53;3.95;;;;;;;19.71;49.36;97672.62;1695806;83;20986;-61
2021/05/12 09:04:32;;;;;;;13.98;4.12;;;;;;;19.76;50.09;97672.31;1695927;83;20970;-65
2021/05/12 09:06:59;;;;;;;12.07;4.62;;;;;;;19.84;50.51;97675.97;1697165;83;21057;-59
2021/05/12 09:09:26;;;;;;;9.58;4.25;;;;;;;19.93;50.47;97678.69;1696953;83;20976;-61
2021/05/12 09:11:56;;;;;;;11.78;4.20;;;;;;;20.00;49.69;97682.11;1664229;83;21198;-63
2021/05/12 09:14:27;;;;;;;12.10;4.00;;;;;;;20.00;49.20;97685.63;1696788;83;20962;-61
2021/05/12 09:16:54;;;;;;;13.75;3.95;;;;;;;19.98;49.27;97683.84;1696920;83;21393;-62
2021/05/12 09:19:23;;;;;;;9.83;3.47;;;;;;;19.99;49.11;97675.12;1696182;83;21167;-65
2021/05/12 09:22:02;;;;;;;11.85;3.47;;;;;;;20.01;49.11;97689.92;1667913;84;21219;-66
2021/05/12 09:24:36;;;;;;;12.65;4.45;;;;;;;20.01;49.37;97684.49;1668934;85;21013;-62
2021/05/12 09:27:16;;;;;;;10.00;3.60;;;;;;;20.02;49.42;97702.36;1684474;83;21544;-62
2021/05/12 09:29:45;;;;;;;9.38;3.37;;;;;;;20.05;49.18;97692.70;1691009;82;21100;-63
2021/05/12 09:32:16;;;;;;;12.63;3.50;;;;;;;20.13;48.15;97695.22;1708355;81;21132;-61
2021/05/12 09:35:03;;;;;;;10.95;3.30;;;;;;;20.12;47.17;97687.41;1659099;84;21603;-61
2021/05/12 09:37:54;;;;;;;7.60;2.70;;;;;;;20.17;47.83;97684.39;1655385;84;21017;-61
2021/05/12 09:40:22;;;;;;;11.95;3.10;;;;;;;20.26;47.97;97693.94;1667864;84;21000;-60
2021/05/12 09:42:59;;;;;;;8.33;2.87;;;;;;;20.41;47.06;97689.55;1666538;83;21102;-60
2021/05/12 09:45:26;;;;;;;9.80;2.65;;;;;;;20.53;46.17;97694.03;1662494;85;20963;-64
2021/05/12 09:47:58;;;;;;;11.22;2.85;;;;;;;20.61;46.01;97698.46;1662391;85;21654;-59
2021/05/12 09:50:30;;;;;;;4.60;2.33;;;;;;;20.69;44.48;97693.34;1646019;84;21197;-59
2021/05/12 09:53:08;;;;;;;7.78;3.00;;;;;;;20.63;43.71;97690.72;1663018;85;20975;-60
2021/05/12 09:55:39;;;;;;;6.55;2.42;;;;;;;20.45;43.83;97691.19;1661613;85;21408;-60
2021/05/12 09:58:13;;;;;;;5.25;2.50;;;;;;;20.38;44.74;97697.86;1661383;85;21470;-61
2021/05/12 10:00:42;;;;;;;6.67;2.27;;;;;;;20.45;43.98;97706.14;1660187;85;22803;-61
2021/05/12 10:06:05;;;;;;;4.35;2.17;;;;;;;20.53;43.66;97696.19;1646975;85;21547;-61
2021/05/12 10:08:34;;;;;;;10.23;2.22;;;;;;;20.59;43.24;97698.02;1681062;85;21237;-61
2021/05/12 10:11:07;;;;;;;6.25;2.08;;;;;;;20.58;42.11;97697.25;1662623;85;20959;-61
2021/05/12 10:13:35;;;;;;;7.17;2.25;;;;;;;20.54;42.49;97683.37;1669659;83;21031;-60
2021/05/12 10:16:05;;;;;;;5.25;1.90;;;;;;;20.57;42.31;97671.74;1690331;83;21162;-60
2021/05/12 10:18:32;;;;;;;4.92;2.27;;;;;;;20.58;42.74;97687.73;1690451;83;20922;-61
2021/05/12 10:21:01;;;;;;;3.60;1.80;;;;;;;20.61;41.45;97672.61;1690448;83;20934;-65
2021/05/12 10:23:28;;;;;;;7.62;1.77;;;;;;;20.58;41.04;97676.05;1719362;83;21054;-60
2021/05/12 10:25:58;;;;;;;9.70;1.90;;;;;;;20.57;42.20;97671.17;1690529;83;21141;-66
2021/05/12 10:28:25;;;;;;;7.42;1.80;;;;;;;20.64;40.85;97671.30;1690537;83;21001;-66
2021/05/12 10:30:52;;;;;;;5.20;1.32;;;;;;;20.69;40.73;97662.05;1719488;83;20898;-67
2021/05/12 10:33:47;;;;;;;3.60;1.47;;;;;;;20.70;39.85;97668.50;1690798;83;21177;-63
2021/05/12 10:36:14;;;;;;;10.48;1.30;;;;;;;20.70;38.56;97673.16;1690739;83;21033;-63
2021/05/12 10:38:45;;;;;;;5.28;1.40;;;;;;;20.64;38.35;97670.51;1689664;83;22807;-65
2021/05/12 10:41:47;;;;;;;3.40;1.02;;;;;;;20.60;38.66;97666.95;1681140;84;21506;-64
2021/05/12 10:44:21;;;;;;;18.67;1.50;;;;;;;20.61;37.84;97665.81;1683271;84;21056;-64
2021/05/12 10:47:05;;;;;;;8.00;1.12;;;;;;;20.55;37.04;97661.80;1690885;83;21030;-64
2021/05/12 10:49:32;;;;;;;4.92;1.20;;;;;;;20.48;37.29;97656.23;1699132;83;21119;-62
2021/05/12 10:52:07;;;;;;;3.67;0.90;;;;;;;20.50;37.37;97652.58;1701140;83;20990;-61
2021/05/12 10:54:48;;;;;;;4.30;1.20;;;;;;;20.52;36.36;97652.43;1704218;83;20914;-62
2021/05/12 10:57:47;;;;;;;5.33;1.25;;;;;;;20.49;36.25;97648.30;1700784;83;20963;-63
2021/05/12 11:00:15;;;;;;;9.08;0.95;;;;;;;20.48;36.00;97642.64;1659534;84;21045;-64
2021/05/12 11:03:04;;;;;;;5.28;1.00;;;;;;;20.47;35.15;97655.45;1691730;83;20913;-63
2021/05/12 11:05:53;;;;;;;3.35;0.90;;;;;;;20.50;35.85;97645.78;1691609;84;22992;-63
2021/05/12 11:08:20;;;;;;;6.92;0.93;;;;;;;20.55;34.78;97645.48;1691226;84;20945;-62
2021/05/12 11:11:02;;;;;;;10.35;1.15;;;;;;;20.62;35.35;97643.67;1680128;84;21120;-63
2021/05/12 11:13:31;;;;;;;9.48;1.07;;;;;;;20.66;34.17;97638.27;1679694;84;21606;-64
2021/05/12 11:16:01;;;;;;;8.83;1.47;;;;;;;20.73;34.99;97641.11;1681153;84;21476;-63
2021/05/12 11:18:40;;;;;;;4.83;0.78;;;;;;;20.90;35.22;97641.41;1697679;83;20999;-62
2021/05/12 11:21:27;;;;;;;4.87;1.60;;;;;;;21.11;34.08;97644.48;1730360;81;20990;-63
2021/05/12 11:24:08;;;;;;;12.20;0.90;;;;;;;21.29;31.58;97639.27;1712238;83;20942;-63
2021/05/12 11:32:03;;;;;;;5.62;0.70;;;;;;;21.89;29.77;97645.53;1724576;81;22824;-65
2021/05/12 11:34:30;;;;;;;7.42;1.02;;;;;;;21.95;29.57;97636.45;1697654;83;21001;-62
2021/05/12 11:37:09;;;;;;;11.90;1.05;;;;;;;22.11;29.16;97631.56;1701239;83;21014;-63
2021/05/12 11:39:36;;;;;;;7.28;1.05;;;;;;;22.22;28.25;97646.87;1702188;82;21237;-66
2021/05/12 11:42:03;;;;;;;10.78;0.93;;;;;;;22.29;27.95;97628.42;1703739;82;20907;-66
2021/05/12 11:44:30;;;;;;;8.50;0.90;;;;;;;22.29;27.97;97635.25;1705917;82;21054;-63
2021/05/12 11:46:56;;;;;;;6.53;0.80;;;;;;;22.26;27.25;97634.05;1733847;82;21033;-68
2021/05/12 11:49:30;;;;;;;3.80;0.98;;;;;;;22.30;26.94;97628.04;1705127;82;21226;-64
2021/05/12 11:52:00;;;;;;;10.05;1.07;;;;;;;22.44;26.98;97624.69;1703642;82;20987;-67
2021/05/12 11:54:28;;;;;;;14.50;1.55;;;;;;;22.65;27.27;97622.17;1716572;81;21583;-64
2021/05/12 11:57:00;;;;;;;7.12;0.60;;;;;;;22.81;27.69;97616.44;1695723;83;21286;-66
2021/05/12 11:59:31;;;;;;;6.90;0.70;;;;;;;22.95;25.77;97620.63;1679148;83;21642;-63
2021/05/12 12:02:08;;;;;;;0.80;0.45;;;;;;;22.82;26.23;97637.13;1709840;82;21388;-66
2021/05/12 12:04:37;;;;;;;;;;;;;;;22.71;26.30;97631.56;1720742;81;21019;-66
2021/05/12 12:07:05;;;;;;;2.67;0.60;;;;;;;22.75;26.36;97629.64;1721072;81;20186;-66
2021/05/12 12:09:32;;;;;;;3.60;0.50;;;;;;;22.82;26.92;97624.23;1724354;81;21648;-64
2021/05/12 12:11:59;;;;;;;0.62;0.50;;;;;;;22.97;26.79;97620.45;1720856;81;21154;-65
2021/05/12 12:14:32;;;;;;;4.92;0.53;;;;;;;23.23;26.08;97621.39;1719311;82;21005;-68
2021/05/12 12:16:59;;;;;;;6.47;0.65;;;;;;;23.43;25.12;97614.52;1715669;82;21119;-64
2021/05/12 12:19:26;;;;;;;6.50;0.62;;;;;;;23.41;24.68;97616.86;1701471;83;21172;-68
2021/05/12 12:21:56;;;;;;;2.47;0.55;;;;;;;23.31;24.76;97609.35;1715057;82;22688;-63
2021/05/12 12:24:26;;;;;;;3.62;0.47;;;;;;;23.28;25.85;97604.64;1717928;82;21444;-71
2021/05/12 12:26:58;;;;;;;5.45;0.98;;;;;;;23.38;24.82;97609.42;1711809;81;21012;-68
2021/05/12 12:29:28;;;;;;;7.40;0.70;;;;;;;23.41;25.06;97607.30;1736375;81;21616;-66
2021/05/12 12:32:08;;;;;;;5.25;0.50;;;;;;;23.39;25.66;97604.16;1721318;82;20972;-67
2021/05/12 12:34:44;;;;;;;4.12;0.70;;;;;;;23.50;25.36;97604.99;1742683;81;22761;-69
2021/05/12 12:37:16;;;;;;;3.52;0.60;;;;;;;23.58;24.91;97595.06;1703757;83;21548;-66
2021/05/12 12:39:56;;;;;;;11.28;1.10;;;;;;;23.46;24.87;97595.39;1663797;83;20981;-70
2021/05/12 12:42:44;;;;;;;4.50;0.70;;;;;;;23.35;25.23;97596.51;1685962;83;20952;-67
2021/05/12 12:45:28;;;;;;;7.78;0.80;;;;;;;23.31;25.57;97590.22;1723361;82;20915;-65
2021/05/12 12:48:04;;;;;;;3.40;0.40;;;;;;;23.46;25.89;97591.91;1676322;83;21004;-68
2021/05/12 12:50:32;;;;;;;5.70;0.82;;;;;;;23.50;25.61;97593.48;1718196;82;21131;-67
2021/05/12 12:53:07;;;;;;;2.00;0.60;;;;;;;23.52;25.43;97584.89;1715648;82;21132;-71
2021/05/12 12:55:35;;;;;;;5.60;0.50;;;;;;;23.60;25.66;97587.86;1697195;83;21115;-68
2021/05/12 12:58:05;;;;;;;1.75;0.40;;;;;;;23.70;26.04;97593.93;1700598;83;21104;-71
2021/05/12 13:00:43;;;;;;;2.75;0.70;;;;;;;23.78;25.33;97587.33;1675325;84;21205;-72
2021/05/12 13:03:22;;;;;;;3.42;0.55;;;;;;;23.87;25.67;97589.69;1708093;81;21168;-75
2021/05/12 13:06:00;;;;;;;4.80;0.50;;;;;;;24.03;25.27;97600.48;1687269;83;21012;-67
2021/05/12 13:08:38;;;;;;;14.93;0.80;;;;;;;24.01;25.20;97595.98;1683571;84;21409;-71
2021/05/12 13:11:09;;;;;;;4.87;0.50;;;;;;;23.89;25.47;97594.97;1688173;83;21143;-66
2021/05/12 13:13:51;;;;;;;1.15;0.50;;;;;;;23.66;25.59;97590.41;1702945;82;21421;-68
2021/05/12 13:16:31;;;;;;;4.87;0.60;;;;;;;23.61;26.17;97588.05;1726171;82;20994;-66
2021/05/12 13:19:03;;;;;;;2.00;0.50;;;;;;;23.76;26.14;97595.91;1714512;83;21004;-61
2021/05/12 13:21:53;;;;;;;4.30;0.70;;;;;;;23.80;25.65;97589.88;1713727;83;21096;-68
2021/05/12 13:24:27;;;;;;;7.83;1.12;;;;;;;23.84;26.00;97583.04;1724596;82;20979;-67
2021/05/12 13:27:00;;;;;;;8.23;1.03;;;;;;;23.82;26.05;97579.91;1691176;83;21172;-66
2021/05/12 13:29:27;;;;;;;4.90;0.70;;;;;;;23.85;26.18;97568.79;1711111;83;21870;-68
2021/05/12 13:31:54;;;;;;;5.35;1.10;;;;;;;23.78;25.69;97588.12;1684679;83;21119;-70
2021/05/12 13:34:23;;;;;;;7.70;1.10;;;;;;;23.64;26.38;97586.70;1684747;83;21242;-71
2021/05/12 13:36:53;;;;;;;6.30;1.45;;;;;;;23.79;26.72;97573.84;1685403;83;21028;-64
2021/05/12 13:39:20;;;;;;;4.60;0.68;;;;;;;23.95;26.27;97581.14;1672069;84;21206;-69
2021/05/12 13:41:47;;;;;;;7.25;0.70;;;;;;;24.09;26.50;97572.20;1683745;83;21132;-65
2021/05/12 13:44:16;;;;;;;8.33;0.68;;;;;;;24.22;25.86;97580.22;1684490;83;21120;-66
2021/05/12 13:46:44;;;;;;;3.02;0.42;;;;;;;24.29;25.63;97576.91;1684593;83;21362;-71
2021/05/12 13:49:12;;;;;;;3.80;0.47;;;;;;;24.37;25.94;97575.76;1672012;84;21311;-68
2021/05/12 13:51:43;;;;;;;4.85;0.88;;;;;;;24.49;25.54;97569.11;1684636;83;22671;-68
2021/05/12 13:54:21;;;;;;;7.97;0.60;;;;;;;24.29;25.78;97568.70;1685264;83;21142;-64
2021/05/12 13:56:54;;;;;;;8.53;0.85;;;;;;;24.22;25.66;97561.86;1675168;84;21017;-66
2021/05/12 14:04:28;;;;;;;6.78;0.95;;;;;;;24.55;25.71;97559.91;1709278;83;20999;-67
2021/05/12 14:06:56;;;;;;;3.85;0.50;;;;;;;24.69;25.92;97558.53;1708567;83;21030;-66
2021/05/12 14:09:35;;;;;;;4.33;0.50;;;;;;;24.73;25.37;97552.48;1707745;83;21054;-67
2021/05/12 14:12:05;;;;;;;7.03;0.40;;;;;;;24.84;25.32;97551.90;1683828;83;21018;-71
2021/05/12 14:14:42;;;;;;;5.67;0.65;;;;;;;24.95;25.02;97555.39;1684776;83;20919;-69
2021/05/12 14:17:02;;;;;;;5.22;0.50;;;;;;;24.96;25.42;97552.28;1685414;83;22960;-70
2021/05/12 14:19:28;;;;;;;2.83;0.55;;;;;;;24.96;25.11;97545.43;1709243;83;21287;-68
2021/05/12 14:21:56;;;;;;;2.10;0.40;;;;;;;24.90;24.91;97546.20;1709513;83;20995;-68
2021/05/12 14:24:26;;;;;;;7.58;0.60;;;;;;;24.84;24.79;97538.20;1711671;83;20932;-69
2021/05/12 14:26:54;;;;;;;3.25;0.33;;;;;;;24.86;25.71;97541.33;1709447;83;20947;-72
2021/05/12 14:29:30;;;;;;;2.40;0.37;;;;;;;25.03;23.80;97556.95;1709300;83;22641;-72
2021/05/12 14:31:50;;;;;;;2.85;0.50;;;;;;;24.97;23.95;97545.61;1661928;83;21160;-68
2021/05/12 14:34:17;;;;;;;6.70;0.55;;;;;;;24.91;24.27;97546.41;1709328;83;20978;-69
2021/05/12 14:36:48;;;;;;;3.58;0.65;;;;;;;24.86;25.23;97544.86;1708637;83;21236;-71
2021/05/12 14:39:14;;;;;;;5.30;0.50;;;;;;;25.01;25.33;97541.50;1685410;83;21008;-70
2021/05/12 14:41:41;;;;;;;5.33;0.62;;;;;;;25.07;24.85;97550.87;1709207;83;22678;-68
2021/05/12 14:44:08;;;;;;;6.90;0.60;;;;;;;25.09;24.67;97551.25;1709381;83;20982;-67
2021/05/12 14:46:35;;;;;;;6.05;0.57;;;;;;;25.10;24.41;97538.55;1709238;83;21030;-68
2021/05/12 14:49:04;;;;;;;11.93;1.00;;;;;;;25.08;24.37;97546.97;1709527;83;21083;-71
2021/05/12 14:51:33;;;;;;;1.82;0.37;;;;;;;24.91;25.03;97551.31;1709307;83;20927;-67
2021/05/12 14:54:04;;;;;;;3.92;0.70;;;;;;;24.72;25.28;97542.11;1719065;82;22936;-66
2021/05/12 14:59:20;;;;;;;6.80;0.50;;;;;;;24.62;26.12;97542.10;1732714;82;20958;-64
2021/05/12 15:07:00;;;;;;;17.87;1.67;;;;;;;24.29;26.06;97548.76;1737402;82;21689;-67
2021/05/12 15:09:26;;;;;;;5.87;0.82;;;;;;;24.11;26.17;97551.49;1721808;83;21563;-67
2021/05/12 15:11:55;;;;;;;9.83;0.90;;;;;;;23.91;26.53;97551.61;1708021;82;20878;-69
2021/05/12 15:14:22;;;;;;;2.80;0.95;;;;;;;23.96;26.87;97543.61;1721429;83;21087;-67
2021/05/12 15:16:49;;;;;;;4.08;0.42;;;;;;;24.19;26.64;97547.58;1707994;82;20989;-65
2021/05/12 15:19:15;;;;;;;5.45;0.42;;;;;;;24.26;26.43;97551.69;1721372;83;22609;-66
2021/05/12 15:21:42;;;;;;;4.33;0.70;;;;;;;24.29;26.04;97546.81;1708068;82;21082;-63
2021/05/12 15:24:09;;;;;;;0.90;0.40;;;;;;;24.20;26.27;97545.63;1732607;82;20942;-65
2021/05/12 15:26:36;;;;;;;4.15;0.65;;;;;;;24.08;26.29;97548.16;1737507;82;21120;-65
2021/05/12 15:29:04;;;;;;;7.85;0.53;;;;;;;23.88;26.38;97551.61;1721500;83;20942;-67
2021/05/12 15:31:30;;;;;;;4.47;0.40;;;;;;;23.83;26.66;97551.41;1708352;82;23248;-67
2021/05/12 15:33:57;;;;;;;2.77;0.60;;;;;;;23.82;26.64;97549.83;1721378;83;21014;-65
2021/05/12 15:36:24;;;;;;;2.47;0.50;;;;;;;23.84;26.40;97542.02;1708214;82;20917;-68
2021/05/12 15:38:51;;;;;;;4.20;0.78;;;;;;;23.84;26.43;97550.22;1721466;83;21217;-67
2021/05/12 15:41:17;;;;;;;4.33;0.57;;;;;;;23.77;26.80;97531.06;1708228;82;20954;-67
2021/05/12 15:43:45;;;;;;;4.37;0.45;;;;;;;23.71;26.73;97538.89;1721755;83;22629;-67
2021/05/12 15:46:11;;;;;;;3.27;0.70;;;;;;;23.65;27.26;97539.05;1708195;82;21629;-68
2021/05/12 15:48:40;;;;;;;3.35;0.65;;;;;;;23.64;27.35;97538.08;1722054;83;21002;-68
2021/05/12 15:51:07;;;;;;;4.37;0.70;;;;;;;23.51;27.40;97538.21;1710632;82;21025;-66
2021/05/12 15:53:34;;;;;;;5.53;0.72;;;;;;;23.08;27.71;97535.27;1719152;83;21304;-67
2021/05/12 15:56:01;;;;;;;1.80;0.55;;;;;;;22.62;28.53;97542.40;1706432;83;22698;-67
2021/05/12 15:58:27;;;;;;;3.10;0.60;;;;;;;22.15;29.04;97547.25;1717175;83;21190;-68
2021/05/12 16:00:54;;;;;;;2.62;0.55;;;;;;;21.71;29.55;97543.09;1706378;83;20919;-69
2021/05/12 16:03:21;;;;;;;3.58;0.68;;;;;;;21.20;30.18;97541.31;1717152;83;21329;-68
2021/05/12 16:05:48;;;;;;;4.33;0.65;;;;;;;20.68;31.16;97545.60;1706441;83;21022;-68
2021/05/12 16:08:15;;;;;;;4.58;0.62;;;;;;;20.33;31.73;97548.56;1717016;83;22665;-66
2021/05/12 16:10:41;;;;;;;3.30;0.47;;;;;;;19.88;32.37;97551.23;1706316;83;21005;-68
2021/05/12 16:13:11;;;;;;;3.45;0.50;;;;;;;19.45;33.07;97533.94;1717065;83;21034;-68
2021/05/12 16:15:37;;;;;;;1.62;0.57;;;;;;;19.04;33.81;97545.69;1706323;83;21487;-69
2021/05/12 16:18:05;;;;;;;9.53;0.90;;;;;;;18.71;34.74;97539.91;1716914;83;20966;-69
2021/05/12 16:20:31;;;;;;;8.70;0.85;;;;;;;18.44;35.56;97544.88;1706427;83;21056;-68
2021/05/12 16:22:58;;;;;;;5.45;0.78;;;;;;;18.19;36.03;97546.19;1716893;83;21015;-68
2021/05/12 16:25:25;;;;;;;3.75;1.02;;;;;;;18.00;36.11;97546.08;1706332;83;21017;-67
2021/05/12 16:27:52;;;;;;;8.00;1.00;;;;;;;17.80;36.60;97559.31;1717141;83;21214;-67
2021/05/12 16:30:19;;;;;;;3.90;1.00;;;;;;;17.64;37.16;97552.52;1706531;83;20982;-67
2021/05/12 16:32:47;;;;;;;5.42;1.00;;;;;;;17.47;37.70;97559.55;1692779;83;21038;-65
2021/05/12 16:35:14;;;;;;;7.08;1.10;;;;;;;17.33;37.92;97549.69;1706360;83;21211;-66
2021/05/12 16:37:41;;;;;;;2.72;0.75;;;;;;;17.18;38.25;97551.19;1717259;83;20971;-66
2021/05/12 16:40:12;;;;;;;9.45;0.90;;;;;;;17.06;38.58;97553.38;1706435;83;20978;-66
2021/05/12 16:42:39;;;;;;;5.10;1.12;;;;;;;16.83;38.89;97558.27;1716971;83;21015;-67
2021/05/12 16:45:08;;;;;;;3.17;0.95;;;;;;;16.66;39.21;97554.45;1706426;83;20993;-66
2021/05/12 16:47:35;;;;;;;5.45;0.90;;;;;;;16.52;39.67;97563.47;1717133;83;21890;-66
2021/05/12 16:50:04;;;;;;;3.35;0.88;;;;;;;16.38;39.83;97556.47;1706322;83;20911;-67
2021/05/12 16:52:31;;;;;;;4.70;1.00;;;;;;;16.23;40.38;97566.58;1716980;83;21082;-66
2021/05/12 16:54:58;;;;;;;3.33;1.22;;;;;;;16.10;40.51;97560.95;1707736;82;21006;-69
2021/05/12 16:57:25;;;;;;;5.58;0.80;;;;;;;15.98;40.80;97555.53;1729429;83;21488;-64
2021/05/12 16:59:51;;;;;;;4.55;0.90;;;;;;;15.86;41.08;97557.41;1707834;82;21274;-67
2021/05/12 17:02:18;;;;;;;3.25;0.70;;;;;;;15.76;41.48;97557.86;1728811;83;21009;-65
2021/05/12 17:04:45;;;;;;;5.67;0.75;;;;;;;15.67;41.44;97559.27;1707858;82;21112;-67
2021/05/12 17:07:13;;;;;;;2.00;0.70;;;;;;;15.55;41.67;97558.67;1729110;83;20938;-64
2021/05/12 17:09:39;;;;;;;5.80;1.00;;;;;;;15.46;41.94;97557.17;1708105;82;21302;-65
2021/05/12 17:12:21;;;;;;;4.00;0.70;;;;;;;15.34;42.11;97555.19;1728772;83;21188;-66
2021/05/12 17:14:48;;;;;;;4.78;0.80;;;;;;;15.27;42.37;97559.53;1707957;82;20993;-67
2021/05/12 17:17:14;;;;;;;3.83;0.90;;;;;;;15.15;42.47;97552.17;1729914;83;21178;-66
2021/05/12 17:19:41;;;;;;;3.17;0.90;;;;;;;15.08;42.72;97552.71;1707947;82;20933;-66
2021/05/12 17:22:08;;;;;;;9.10;0.82;;;;;;;15.01;42.95;97554.35;1732238;82;22631;-65
2021/05/12 17:24:35;;;;;;;5.00;0.90;;;;;;;14.95;43.03;97542.98;1735158;82;20910;-66
2021/05/12 17:27:02;;;;;;;8.48;0.90;;;;;;;14.87;43.16;97541.13;1728778;83;20955;-67
2021/05/12 17:29:28;;;;;;;6.10;1.15;;;;;;;14.79;43.35;97547.36;1707875;82;21239;-68
2021/05/12 17:31:55;;;;;;;3.55;1.10;;;;;;;14.73;43.47;97533.86;1728805;83;20998;-67
2021/05/12 17:34:22;;;;;;;7.50;0.95;;;;;;;14.64;43.37;97538.52;1707823;82;22761;-64
2021/05/12 17:36:48;;;;;;;2.52;0.90;;;;;;;14.53;43.70;97538.65;1732221;82;21070;-65
2021/05/12 17:39:15;;;;;;;6.42;1.05;;;;;;;14.48;43.65;97544.80;1707935;82;21002;-67
2021/05/12 17:41:42;;;;;;;4.60;1.27;;;;;;;14.41;44.02;97538.58;1728922;83;21229;-66
2021/05/12 17:44:09;;;;;;;3.10;1.22;;;;;;;14.33;44.11;97540.75;1735127;82;20962;-65
2021/05/12 17:46:38;;;;;;;3.92;1.12;;;;;;;14.25;44.32;97549.63;1728726;83;23159;-65
2021/05/12 17:49:05;;;;;;;7.62;1.20;;;;;;;14.21;44.59;97548.70;1707601;82;20969;-65
2021/05/12 17:51:32;;;;;;;1.62;1.07;;;;;;;14.16;44.72;97551.57;1728792;83;20914;-66